x

Halibut Bank (46146) Wave Buoy

12:00pm - Sun 26th Mar 2017 All times are PDT. -7 hours from GMT.

  • Sig Wave height 3.6ft
  • Peak Period 4s
  • Wind
    29mph, 34mph gusts
  • Sea Temp 46°f
  • 空気 Temp 43°f
  • Sea Pressure 1007.6mb
  • Halibut Bank
  • Halibut Bank

More Historic Weather Station data

Upgrade to MSW Pro to gain access to the past 30 days of data for over 8000 Wavebouys and Weather Stations around the globe.

Join Pro

Comparision Forecast

View Surf forecast
   
Sun 03/26 12:00pm 3.5ft 4s 29 34 mph 1007.6mb 46f 43f
11:00am 3ft 4s 27 31 mph 1008.1mb 46f 44f
10:00am 2.5ft 3s 22 25 mph 1008.7mb 46f 44f
9:00am 1.6ft 3s 20 22 mph 1008.9mb 46f 44f
8:00am 1.3ft 3s 16 18 mph 1009.4mb 46f 45f
7:00am 1.6ft 3s 16 18 mph 1009.7mb 46f 46f
6:00am 1.6ft 3s 16 20 mph 1010.2mb 46f 45f
5:00am 1.6ft 3s 18 20 mph 1011.4mb 46f 45f
4:00am 1.6ft 3s 16 18 mph 1012.9mb 46f 45f
3:00am 1.3ft 3s 18 20 mph 1013.8mb 47f 46f
2:00am 1ft 3s 16 18 mph 1014.8mb 46f 46f
1:00am 0.7ft 2s 13 16 mph 1015.3mb 46f 46f
12:00am 0.7ft 2s 9 11 mph 1015.9mb 46f 46f
Sat 03/25 11:00pm 0.7ft 3s 11
mph
1016.3mb 46f 46f
10:00pm 0.7ft 2s 9 11 mph 1016.6mb 47f 46f
9:00pm 0.7ft 2s 9 11 mph 1016.9mb 47f 47f
8:00pm 0.3ft 2s 11
mph
1017mb 47f 47f
7:00pm 0.3ft 7s 9 11 mph 1017.5mb 47f 47f
6:00pm 0.3ft 2s 9
mph
1017.8mb 47f 47f
5:00pm 0.7ft 7s 7 9 mph 1017.8mb 47f 47f
4:00pm 0.3ft 2s 7 9 mph 1018.3mb 47f 47f
3:00pm 0.7ft 2s 7 9 mph 1018.5mb 47f 47f
2:00pm 1ft 3s 11 13 mph 1018.4mb 47f 47f
1:00pm 0.7ft 2s 7 9 mph 1018.6mb 47f 47f
12:00pm 0.7ft 4s 4 7 mph 1018.7mb 47f 47f
11:00am 0.7ft 3s 4 7 mph 1018.5mb 47f 47f
10:00am 0.7ft 3s 7 9 mph 1018.1mb 46f 46f
9:00am 0.7ft 3s 2
mph
1017.1mb 46f 47f
8:00am 1ft 2s 7 9 mph 1016.9mb 46f 46f
7:00am 1.3ft 3s 7 9 mph 1016.2mb 46f 46f
6:00am 1ft 3s 9 16 mph 1015.3mb 46f 47f
5:00am 1.3ft 3s 9 11 mph 1014.6mb 46f 47f
4:00am 1.6ft 3s 11
mph
1013.8mb 46f 46f
3:00am 2ft 3s 16 20 mph 1013.5mb 46f 46f
2:00am 2ft 3s 20 22 mph 1013.4mb 46f 47f
1:00am 1.6ft 3s 20 27 mph 1012.7mb 46f 47f
12:00am 1.3ft 2s 16 20 mph 1012.5mb 46f 47f
Fri 03/24 11:00pm 1.3ft 3s 13 16 mph 1012.1mb 46f 47f
10:00pm 1.3ft 3s 13 18 mph 1011.2mb 46f 47f
9:00pm 1.6ft 3s 13 16 mph 1010.7mb 46f 47f
8:00pm 1.3ft 3s 13 18 mph 1009.7mb 46f 48f
7:00pm 1.3ft 3s 13 18 mph 1009.1mb 46f 48f
6:00pm 1.3ft 3s 13
mph
1008.6mb 47f 47f
5:00pm 1.6ft 3s 11 13 mph 1008.4mb 46f 47f
4:00pm 2ft 3s 13 18 mph 1008mb 46f 48f
3:00pm 2ft 3s 18 20 mph 1007.5mb 46f 47f
2:00pm 1.6ft 3s 16 20 mph 1007.3mb 46f 47f
1:00pm 1.6ft 3s 18 20 mph 1007.3mb 46f 47f
12:00pm 1.6ft 3s 18 20 mph 1007.3mb 46f 47f
11:00am 1.3ft 3s 16 18 mph 1007.3mb 46f 47f
10:00am 1.6ft 3s 16 18 mph 1007mb 46f 48f
9:00am 2ft 4s 18 20 mph 1006.5mb 46f 48f
8:00am 1.6ft 4s 16 18 mph 1006.9mb 46f 48f
7:00am 2.5ft 4s 18 20 mph 1006.9mb 46f 47f
6:00am 2.5ft 4s 18 25 mph 1006.7mb 46f 47f
5:00am 2.5ft 4s 20 25 mph 1006.8mb 46f 47f
4:00am 2.5ft 4s 20 25 mph 1007.3mb 46f 46f
3:00am 3ft 4s 22 27 mph 1007.9mb 46f 45f
2:00am 3ft 4s 20 25 mph 1008.6mb 46f 45f
1:00am 3.5ft 4s 22 27 mph 1008.8mb 46f 45f
Thu 03/23 11:00pm 3.5ft 4s 29 36 mph 1009mb 46f 46f
10:00pm 2.5ft 4s 25 29 mph 1009.9mb 46f 46f
9:00pm 2.5ft 4s 25 29 mph 1010.2mb 46f 47f
8:00pm 1.6ft 3s 20 25 mph 1011mb 46f 47f
7:00pm 1.6ft 4s 16 22 mph 1011.7mb 46f 47f
6:00pm 1.6ft 4s 13 20 mph 1012.2mb 46f 48f
5:00pm 2.5ft 4s 11 13 mph 1013.3mb 46f 48f
4:00pm 2.5ft 4s 16 20 mph 1013.5mb 46f 48f
3:00pm 2.5ft 4s 18 22 mph 1014.4mb 46f 48f
2:00pm 2.5ft 4s 18 25 mph 1015mb 46f 47f
1:00pm 2.5ft 4s 16 20 mph 1016mb 46f 46f
12:00pm 2.5ft 4s 20 22 mph 1016.5mb 46f 46f
11:00am 2.5ft 4s 20 22 mph 1016.6mb 46f 45f
10:00am 3ft 4s 20 25 mph 1016.6mb 46f 45f
9:00am 2.5ft 4s 20 25 mph 1016.4mb 46f 45f
8:00am 2.5ft 4s 18 20 mph 1016.4mb 46f 45f
7:00am 2.5ft 4s 18 20 mph 1016.1mb 46f 45f
6:00am 2.5ft 4s 18 22 mph 1016mb 46f 45f
5:00am 1.6ft 3s 16 20 mph 1015.9mb 46f 46f
4:00am 1.3ft 3s 13 18 mph 1016mb 46f 46f
3:00am 1.3ft 3s 16 18 mph 1015.9mb 46f 46f
2:00am 1ft 3s 13 18 mph 1015.6mb 46f 46f
1:00am 1.3ft 3s 13 20 mph 1015.7mb 46f 45f
12:00am 1.6ft 4s 16 18 mph 1015.3mb 46f 45f
Wed 03/22 11:00pm 1.6ft 3s 13 18 mph 1015.3mb 46f 45f
10:00pm 1.6ft 3s 20 22 mph 1014.6mb 46f 46f
9:00pm 1.6ft 3s 4 13 mph 1014mb 46f 48f